createdAt,value
2019-04-11T00:01:14.866Z,8.52
2019-04-11T00:03:45.938Z,8.54
2019-04-11T00:06:17.258Z,8.56
2019-04-11T00:08:49.945Z,8.53
2019-04-11T00:11:21.825Z,8.51
2019-04-11T00:13:52.193Z,8.52
2019-04-11T00:16:23.549Z,8.51
2019-04-11T00:18:54.740Z,8.52
2019-04-11T00:21:25.098Z,8.52
2019-04-11T00:23:56.532Z,8.52
2019-04-11T00:26:28.566Z,8.49
2019-04-11T00:29:00.345Z,8.52
2019-04-11T00:31:30.722Z,8.53
2019-04-11T00:34:02.569Z,8.50
2019-04-11T00:36:34.610Z,8.48
2019-04-11T00:39:08.046Z,8.47
2019-04-11T00:41:38.361Z,8.43
2019-04-11T00:44:08.539Z,8.41
2019-04-11T00:46:38.775Z,8.41
2019-04-11T00:49:10.214Z,8.37
2019-04-11T00:51:42.250Z,8.37
2019-04-11T00:54:14.201Z,8.34
2019-04-11T00:56:44.609Z,8.34
2019-04-11T00:59:14.808Z,8.29
2019-04-11T01:01:45.052Z,8.31
2019-04-11T01:04:15.833Z,8.28
2019-04-11T01:06:46.718Z,8.26
2019-04-11T01:09:17.992Z,8.23
2019-04-11T01:11:48.394Z,8.22
2019-04-11T01:14:18.609Z,8.19
2019-04-11T01:16:50.680Z,8.15
2019-04-11T01:19:21.117Z,8.11
2019-04-11T01:21:52.934Z,8.10
2019-04-11T01:24:23.869Z,8.05
2019-04-11T01:26:54.219Z,8.07
2019-04-11T01:29:25.194Z,8.04
2019-04-11T01:32:00.210Z,8.02
2019-04-11T01:34:32.850Z,8.01
2019-04-11T01:37:03.790Z,7.98
2019-04-11T01:39:43.295Z,7.98
2019-04-11T01:42:13.797Z,7.96
2019-04-11T01:44:45.849Z,7.92
2019-04-11T01:47:23.817Z,7.87
2019-04-11T01:49:54.663Z,7.85
2019-04-11T01:52:26.535Z,7.80
2019-04-11T01:54:56.892Z,7.75
2019-04-11T01:57:27.613Z,7.67
2019-04-11T01:59:58.293Z,7.58
2019-04-11T02:02:54.839Z,7.54
2019-04-11T02:05:27.236Z,7.48
2019-04-11T02:07:58.649Z,7.39
2019-04-11T02:10:28.938Z,7.38
2019-04-11T02:12:59.720Z,7.34
2019-04-11T02:15:30.433Z,7.28
2019-04-11T02:19:37.153Z,7.23
2019-04-11T02:22:28.571Z,7.15
2019-04-11T02:25:05.997Z,7.17
2019-04-11T02:27:36.830Z,7.16
2019-04-11T02:30:10.674Z,7.11
2019-04-11T02:32:42.685Z,7.14
2019-04-11T02:35:13.467Z,7.10
2019-04-11T02:37:47.654Z,7.08
2019-04-11T02:40:20.050Z,7.10
2019-04-11T02:42:51.845Z,7.03
2019-04-11T02:45:35.523Z,6.95
2019-04-11T02:47:56.379Z,6.93
2019-04-11T02:50:26.794Z,6.93
2019-04-11T02:52:58.478Z,6.91
2019-04-11T02:55:29.494Z,6.88
2019-04-11T02:58:01.821Z,6.81
2019-04-11T03:00:35.072Z,6.80
2019-04-11T03:03:05.707Z,6.76
2019-04-11T03:05:37.539Z,6.77
2019-04-11T03:08:12.026Z,6.73
2019-04-11T03:10:41.564Z,6.73
2019-04-11T03:13:13.287Z,6.70
2019-04-11T03:15:59.307Z,6.62
2019-04-11T03:18:38.570Z,6.56
2019-04-11T03:20:55.374Z,6.54
2019-04-11T03:23:21.221Z,6.50
2019-04-11T03:25:52.434Z,6.43
2019-04-11T03:28:27.528Z,6.44
2019-04-11T03:31:27.476Z,6.37
2019-04-11T03:34:24.992Z,6.36
2019-04-11T03:36:56.693Z,6.31
2019-04-11T03:38:55.460Z,6.28
2019-04-11T03:41:24.969Z,6.25
2019-04-11T03:43:52.997Z,6.24
2019-04-11T03:46:30.171Z,6.22
2019-04-11T03:48:57.341Z,6.15
2019-04-11T03:51:17.982Z,6.17
2019-04-11T03:53:49.081Z,6.19
2019-04-11T03:56:21.380Z,6.18
2019-04-11T03:58:53.430Z,6.14
2019-04-11T04:01:25.201Z,6.13
2019-04-11T04:03:58.199Z,6.12
2019-04-11T04:06:28.922Z,6.10
2019-04-11T04:09:02.611Z,6.08
2019-04-11T04:11:34.787Z,6.03
2019-04-11T04:14:19.861Z,6.03
2019-04-11T04:17:14.730Z,5.97
2019-04-11T04:20:05.108Z,5.96
2019-04-11T04:22:47.426Z,5.91
2019-04-11T04:25:18.338Z,5.92
2019-04-11T04:27:51.211Z,5.94
2019-04-11T04:30:22.151Z,5.94
2019-04-11T04:32:54.611Z,5.95
2019-04-11T04:35:27.662Z,5.98
2019-04-11T04:37:59.194Z,5.97
2019-04-11T04:40:50.055Z,5.99
2019-04-11T04:43:07.449Z,5.92
2019-04-11T04:45:57.799Z,5.90
2019-04-11T04:48:12.456Z,5.85
2019-04-11T04:50:42.231Z,5.90
2019-04-11T04:53:13.759Z,5.91
2019-04-11T04:55:45.644Z,5.89
2019-04-11T04:58:18.044Z,5.91
2019-04-11T05:00:51.094Z,5.94
2019-04-11T05:03:22.209Z,5.97
2019-04-11T05:05:53.411Z,5.99
2019-04-11T05:08:27.234Z,6.01
2019-04-11T05:10:57.971Z,6.06
2019-04-11T05:13:30.188Z,6.04
2019-04-11T05:16:09.619Z,6.03
2019-04-11T05:18:32.505Z,6.06
2019-04-11T05:21:03.343Z,6.04
2019-04-11T05:23:33.931Z,6.00
2019-04-11T05:26:04.140Z,6.03
2019-04-11T05:28:35.318Z,6.03
2019-04-11T05:31:06.069Z,6.09
2019-04-11T05:33:36.993Z,6.06
2019-04-11T05:36:08.175Z,6.06
2019-04-11T05:38:38.560Z,6.04
2019-04-11T05:41:12.036Z,6.04
2019-04-11T05:43:41.782Z,6.03
2019-04-11T05:46:29.898Z,6.06
2019-04-11T05:49:16.918Z,6.01
2019-04-11T05:51:58.613Z,5.99
2019-04-11T05:54:33.230Z,5.99
2019-04-11T05:57:03.882Z,5.95
2019-04-11T05:59:34.799Z,5.94
2019-04-11T06:02:13.011Z,5.84
2019-04-11T06:04:51.778Z,5.81
2019-04-11T06:07:30.596Z,5.81
2019-04-11T06:10:08.508Z,5.80
2019-04-11T06:13:10.072Z,5.79
2019-04-11T06:15:44.318Z,5.77
2019-04-11T06:18:44.632Z,5.67
2019-04-11T06:21:24.336Z,5.68
2019-04-11T06:24:03.566Z,5.67
2019-04-11T06:27:04.048Z,5.72
2019-04-11T06:30:01.303Z,5.61
2019-04-11T06:33:05.952Z,5.59
2019-04-11T06:35:55.071Z,5.53
2019-04-11T06:38:51.928Z,5.52
2019-04-11T06:41:30.495Z,5.55
2019-04-11T06:44:32.627Z,5.51
2019-04-11T06:47:40.911Z,5.56
2019-04-11T06:50:29.153Z,5.52
2019-04-11T06:53:00.314Z,5.52
2019-04-11T06:55:48.579Z,5.51
2019-04-11T06:58:23.498Z,5.55
2019-04-11T07:01:01.339Z,5.54
2019-04-11T07:03:36.294Z,5.55
2019-04-11T07:06:13.375Z,5.51
2019-04-11T07:08:52.633Z,5.47
2019-04-11T07:11:27.616Z,5.46
2019-04-11T07:14:08.257Z,5.40
2019-04-11T07:17:04.068Z,5.41
2019-04-11T07:20:06.803Z,5.37
2019-04-11T07:22:55.319Z,5.38
2019-04-11T07:25:47.357Z,5.29
2019-04-11T07:28:34.336Z,5.21
2019-04-11T07:31:23.366Z,5.22
2019-04-11T07:34:17.146Z,5.30
2019-04-11T07:37:06.809Z,5.22
2019-04-11T07:40:03.318Z,5.22
2019-04-11T07:42:47.235Z,5.24
2019-04-11T07:45:23.136Z,5.28
2019-04-11T07:47:58.943Z,5.21
2019-04-11T07:50:29.421Z,5.19
2019-04-11T07:53:03.127Z,5.23
2019-04-11T07:55:34.384Z,5.16
2019-04-11T07:58:21.645Z,5.16
2019-04-11T08:01:10.380Z,5.10
2019-04-11T08:04:03.765Z,5.08
2019-04-11T08:06:54.086Z,5.06
2019-04-11T08:09:50.585Z,5.05
2019-04-11T08:12:27.668Z,5.10
2019-04-11T08:15:29.381Z,5.09
2019-04-11T08:18:04.095Z,5.11
2019-04-11T08:20:57.427Z,5.12
2019-04-11T08:23:27.873Z,5.14
2019-04-11T08:26:16.199Z,5.03
2019-04-11T08:28:59.590Z,5.07
2019-04-11T08:31:48.808Z,5.10
2019-04-11T08:34:21.775Z,5.13
2019-04-11T08:37:11.580Z,5.12
2019-04-11T08:39:45.536Z,5.17
2019-04-11T08:42:46.706Z,5.29
2019-04-11T08:45:17.738Z,5.44
2019-04-11T08:47:54.345Z,5.57
2019-04-11T08:50:26.181Z,5.62
2019-04-11T08:53:04.585Z,5.73
2019-04-11T08:55:48.599Z,5.73
2019-04-11T08:58:16.826Z,5.80
2019-04-11T09:00:56.045Z,5.83
2019-04-11T09:04:04.658Z,5.87
2019-04-11T09:06:32.506Z,5.95
2019-04-11T09:09:21.018Z,6.06
2019-04-11T09:12:02.989Z,6.03
2019-04-11T09:14:58.310Z,6.07
2019-04-11T09:17:31.811Z,6.12
2019-04-11T09:20:21.288Z,6.27
2019-04-11T09:23:20.152Z,6.48
2019-04-11T09:26:23.568Z,6.66
2019-04-11T09:28:57.665Z,6.85
2019-04-11T09:32:00.110Z,6.99
2019-04-11T09:34:46.150Z,7.27
2019-04-11T09:37:33.852Z,7.35
2019-04-11T09:40:24.017Z,7.59
2019-04-11T09:43:32.006Z,7.96
2019-04-11T09:46:19.429Z,7.96
2019-04-11T09:49:08.921Z,8.21
2019-04-11T09:52:10.514Z,8.34
2019-04-11T09:54:58.847Z,8.21
2019-04-11T09:57:35.005Z,8.12
2019-04-11T10:00:27.002Z,8.28
2019-04-11T10:03:36.574Z,8.45
2019-04-11T10:06:25.857Z,8.81
2019-04-11T10:08:59.624Z,9.32
2019-04-11T10:11:55.055Z,9.64
2019-04-11T10:14:29.399Z,9.96
2019-04-11T10:17:17.508Z,10.32
2019-04-11T10:20:06.690Z,10.55
2019-04-11T10:23:05.837Z,10.40
2019-04-11T10:25:55.941Z,10.57
2019-04-11T10:28:49.592Z,10.74
2019-04-11T10:31:22.373Z,10.92
2019-04-11T10:34:14.823Z,11.19
2019-04-11T10:36:57.115Z,11.50
2019-04-11T10:39:46.702Z,12.31
2019-04-11T10:42:18.134Z,12.61
2019-04-11T10:45:06.717Z,12.93
2019-04-11T10:47:37.161Z,13.02
2019-04-11T10:50:34.056Z,13.44
2019-04-11T10:53:05.267Z,14.04
2019-04-11T10:56:10.716Z,15.21
2019-04-11T10:58:49.071Z,15.83
2019-04-11T11:01:38.469Z,17.30
2019-04-11T11:04:17.984Z,18.09
2019-04-11T11:06:51.814Z,18.34
2019-04-11T11:09:52.578Z,18.49
2019-04-11T11:12:45.465Z,18.31
2019-04-11T11:15:28.017Z,18.74
2019-04-11T11:20:55.097Z,18.83
2019-04-11T11:23:41.121Z,18.02
2019-04-11T11:26:24.776Z,17.34
2019-04-11T11:29:15.497Z,18.42
2019-04-11T11:31:49.706Z,17.99
2019-04-11T11:34:26.616Z,18.27
2019-04-11T11:37:15.846Z,17.86
2019-04-11T11:40:10.584Z,18.62
2019-04-11T11:43:10.668Z,21.11
2019-04-11T11:46:10.061Z,21.83
2019-04-11T11:48:54.259Z,19.62
2019-04-11T11:51:33.813Z,17.57
2019-04-11T11:54:16.012Z,18.11
2019-04-11T11:56:47.845Z,18.42
2019-04-11T11:59:34.523Z,17.44
2019-04-11T12:02:32.649Z,17.27
2019-04-11T12:05:18.535Z,16.66
2019-04-11T12:08:15.075Z,16.65
2019-04-11T12:10:47.063Z,16.95
2019-04-11T12:13:45.698Z,16.67
2019-04-11T12:16:39.628Z,16.04
2019-04-11T12:19:22.085Z,18.00
2019-04-11T12:21:53.774Z,19.69
2019-04-11T12:24:48.803Z,20.87
2019-04-11T12:27:44.166Z,20.35
2019-04-11T12:30:39.914Z,21.22
2019-04-11T12:33:33.132Z,22.37
2019-04-11T12:36:05.691Z,20.12
2019-04-11T12:38:59.515Z,18.11
2019-04-11T12:41:48.888Z,20.01
2019-04-11T12:44:44.337Z,21.07
2019-04-11T12:47:38.562Z,22.84
2019-04-11T12:50:30.769Z,21.43
2019-04-11T12:53:15.800Z,18.78
2019-04-11T12:55:55.632Z,19.55
2019-04-11T12:58:41.366Z,20.25
2019-04-11T13:01:31.739Z,20.61
2019-04-11T13:04:24.080Z,20.74
2019-04-11T13:07:28.714Z,20.37
2019-04-11T13:10:29.923Z,18.99
2019-04-11T13:13:19.307Z,17.17
2019-04-11T13:15:57.238Z,16.80
2019-04-11T13:19:04.997Z,16.21
2019-04-11T13:21:50.026Z,15.53
2019-04-11T13:24:37.863Z,15.22
2019-04-11T13:27:13.792Z,15.60
2019-04-11T13:30:03.026Z,15.21
2019-04-11T13:32:57.035Z,14.84
2019-04-11T13:36:04.921Z,14.85
2019-04-11T13:38:46.287Z,14.93
2019-04-11T13:41:51.056Z,14.93
2019-04-11T13:44:27.949Z,15.72
2019-04-11T13:47:35.933Z,15.54
2019-04-11T13:50:16.203Z,15.75
2019-04-11T13:53:03.383Z,15.28
2019-04-11T13:55:42.047Z,15.53
2019-04-11T13:58:43.157Z,15.57
2019-04-11T14:01:15.901Z,16.16
2019-04-11T14:04:07.861Z,16.08
2019-04-11T14:06:38.750Z,15.29
2019-04-11T14:09:32.874Z,15.16
2019-04-11T14:12:06.791Z,15.02
2019-04-11T14:14:42.515Z,15.28
2019-04-11T14:17:34.458Z,15.58
2019-04-11T14:20:28.268Z,15.41
2019-04-11T14:23:07.130Z,15.41
2019-04-11T14:26:11.808Z,15.41
2019-04-11T14:28:44.773Z,15.37
2019-04-11T14:31:50.970Z,15.57
2019-04-11T14:34:43.317Z,15.40
2019-04-11T14:37:38.259Z,14.91
2019-04-11T14:40:26.528Z,14.71
2019-04-11T14:43:22.519Z,14.92
2019-04-11T14:46:24.021Z,15.58
2019-04-11T14:49:10.197Z,15.25
2019-04-11T14:51:58.814Z,15.76
2019-04-11T14:54:41.257Z,18.43
2019-04-11T14:57:16.246Z,17.75
2019-04-11T14:59:49.068Z,17.75
2019-04-11T15:02:24.829Z,17.13
2019-04-11T15:05:13.843Z,18.26
2019-04-11T15:07:46.063Z,16.27
2019-04-11T15:10:51.386Z,15.98
2019-04-11T15:13:26.124Z,15.75
2019-04-11T15:16:21.171Z,15.92
2019-04-11T15:18:55.940Z,15.96
2019-04-11T15:21:48.219Z,15.78
2019-04-11T15:24:19.777Z,15.47
2019-04-11T15:27:18.196Z,15.11
2019-04-11T15:29:48.560Z,14.65
2019-04-11T15:32:51.484Z,14.51
2019-04-11T15:35:21.675Z,15.80
2019-04-11T15:38:09.809Z,16.40
2019-04-11T15:40:50.224Z,18.23
2019-04-11T15:43:42.019Z,17.84
2019-04-11T15:46:30.914Z,17.58
2019-04-11T15:49:21.958Z,18.63
2019-04-11T15:52:06.340Z,16.95
2019-04-11T15:54:43.379Z,15.59
2019-04-11T15:57:32.737Z,14.68
2019-04-11T16:00:28.235Z,14.68
2019-04-11T16:03:10.338Z,14.56
2019-04-11T16:06:01.644Z,15.40
2019-04-11T16:08:49.462Z,15.56
2019-04-11T16:11:54.144Z,16.60
2019-04-11T16:14:29.895Z,18.58
2019-04-11T16:17:37.186Z,19.82
2019-04-11T16:20:17.926Z,17.20
2019-04-11T16:23:15.619Z,19.02
2019-04-11T16:25:49.283Z,20.32
2019-04-11T16:28:38.221Z,18.16
2019-04-11T16:31:11.006Z,16.78
2019-04-11T16:34:05.409Z,15.97
2019-04-11T16:36:39.314Z,16.02
2019-04-11T16:39:38.257Z,15.61
2019-04-11T16:42:11.096Z,15.14
2019-04-11T16:45:00.290Z,15.24
2019-04-11T16:47:53.735Z,16.05
2019-04-11T16:50:25.132Z,17.30
2019-04-11T16:52:55.386Z,18.04
2019-04-11T16:55:25.640Z,16.73
2019-04-11T16:57:56.155Z,16.80
2019-04-11T17:00:26.612Z,16.52
2019-04-11T17:02:57.491Z,15.40
2019-04-11T17:05:28.137Z,14.80
2019-04-11T17:08:20.750Z,13.99
2019-04-11T17:11:05.815Z,13.62
2019-04-11T17:13:36.137Z,13.24
2019-04-11T17:16:09.933Z,12.89
2019-04-11T17:18:41.328Z,12.56
2019-04-11T17:21:11.862Z,12.41
2019-04-11T17:23:46.925Z,12.19
2019-04-11T17:26:14.410Z,12.08
2019-04-11T17:28:44.959Z,12.03
2019-04-11T17:31:15.228Z,11.91
2019-04-11T17:33:45.693Z,11.91
2019-04-11T17:36:16.121Z,11.88
2019-04-11T17:38:46.591Z,11.82
2019-04-11T17:41:16.942Z,11.77
2019-04-11T17:43:51.369Z,11.66
2019-04-11T17:46:19.716Z,11.55
2019-04-11T17:48:50.521Z,11.45
2019-04-11T17:51:21.124Z,11.33
2019-04-11T17:53:54.827Z,11.23
2019-04-11T17:56:25.485Z,11.06
2019-04-11T17:58:58.141Z,10.99
2019-04-11T18:01:28.931Z,10.88
2019-04-11T18:03:59.153Z,10.79
2019-04-11T18:06:29.327Z,10.67
2019-04-11T18:08:59.530Z,10.54
2019-04-11T18:11:29.724Z,10.49
2019-04-11T18:14:01.005Z,10.38
2019-04-11T18:16:31.841Z,10.35
2019-04-11T18:19:05.828Z,10.25
2019-04-11T18:21:34.915Z,10.18
2019-04-11T18:24:06.804Z,10.12
2019-04-11T18:26:37.756Z,9.99
2019-04-11T18:29:08.315Z,9.89
2019-04-11T18:31:38.687Z,9.90
2019-04-11T18:34:08.880Z,9.90
2019-04-11T18:36:39.241Z,9.82
2019-04-11T18:39:10.266Z,9.87
2019-04-11T18:41:41.333Z,9.86
2019-04-11T18:44:12.445Z,9.84
2019-04-11T18:46:42.784Z,9.83
2019-04-11T18:49:13.000Z,9.86
2019-04-11T18:51:43.467Z,9.86
2019-04-11T18:54:14.089Z,9.82
2019-04-11T18:56:44.302Z,9.82
2019-04-11T18:59:14.636Z,9.79
2019-04-11T19:01:45.502Z,9.79
2019-04-11T19:04:16.759Z,9.76
2019-04-11T19:06:47.381Z,9.73
2019-04-11T19:09:19.487Z,9.77
2019-04-11T19:11:51.509Z,9.84
2019-04-11T19:14:24.563Z,9.88
2019-04-11T19:16:54.259Z,9.93
2019-04-11T19:19:27.362Z,9.93
2019-04-11T19:21:57.516Z,9.89
2019-04-11T19:24:35.466Z,9.81
2019-04-11T19:27:00.115Z,9.77
2019-04-11T19:29:30.656Z,9.69
2019-04-11T19:32:01.010Z,9.54
2019-04-11T19:34:31.335Z,9.45
2019-04-11T19:37:03.839Z,9.31
2019-04-11T19:39:34.847Z,9.25
2019-04-11T19:42:08.970Z,9.17
2019-04-11T19:44:37.590Z,9.19
2019-04-11T19:47:08.119Z,9.20
2019-04-11T19:49:39.700Z,9.25
2019-04-11T19:52:09.956Z,9.26
2019-04-11T19:54:40.211Z,9.27
2019-04-11T19:57:11.039Z,9.28
2019-04-11T19:59:41.344Z,9.32
2019-04-11T20:02:11.675Z,9.35
2019-04-11T20:04:42.030Z,9.32
2019-04-11T20:07:12.636Z,9.24
2019-04-11T20:09:42.868Z,9.21
2019-04-11T20:12:13.193Z,9.19
2019-04-11T20:14:43.729Z,9.07
2019-04-11T20:17:13.985Z,8.99
2019-04-11T20:19:45.229Z,8.81
2019-04-11T20:22:15.420Z,8.70
2019-04-11T20:24:46.913Z,8.58
2019-04-11T20:27:20.032Z,8.47
2019-04-11T20:29:52.130Z,8.35
2019-04-11T20:32:21.236Z,8.25
2019-04-11T20:34:51.733Z,8.29
2019-04-11T20:37:24.416Z,8.28
2019-04-11T20:39:54.798Z,8.26
2019-04-11T20:42:24.994Z,8.14
2019-04-11T20:44:58.313Z,8.14
2019-04-11T20:47:29.534Z,8.02
2019-04-11T20:50:06.944Z,7.91
2019-04-11T20:52:32.652Z,7.78
2019-04-11T20:55:04.171Z,7.70
2019-04-11T20:57:34.863Z,7.64
2019-04-11T21:00:05.892Z,7.56
2019-04-11T21:02:38.382Z,7.44
2019-04-11T21:05:12.249Z,7.35
2019-04-11T21:07:42.447Z,7.18
2019-04-11T21:10:13.135Z,7.09
2019-04-11T21:12:43.421Z,7.06
2019-04-11T21:15:14.159Z,6.90
2019-04-11T21:17:44.725Z,6.78
2019-04-11T21:20:15.584Z,6.66
2019-04-11T21:22:46.814Z,6.63
2019-04-11T21:25:17.046Z,6.60
2019-04-11T21:27:47.728Z,6.58
2019-04-11T21:30:18.329Z,6.56
2019-04-11T21:32:49.024Z,6.52
2019-04-11T21:35:19.731Z,6.48
2019-04-11T21:37:50.326Z,6.38
2019-04-11T21:40:20.960Z,6.29
2019-04-11T21:42:51.702Z,6.20
2019-04-11T21:45:22.186Z,6.14
2019-04-11T21:47:52.717Z,6.15
2019-04-11T21:50:22.970Z,6.04
2019-04-11T21:52:53.618Z,6.03
2019-04-11T21:55:24.909Z,6.08
2019-04-11T21:57:55.212Z,6.07
2019-04-11T22:00:36.508Z,5.97
2019-04-11T22:03:09.503Z,5.87
2019-04-11T22:05:40.035Z,5.79
2019-04-11T22:08:10.250Z,5.76
2019-04-11T22:10:41.057Z,5.68
2019-04-11T22:13:11.733Z,5.63
2019-04-11T22:15:43.058Z,5.72
2019-04-11T22:18:16.833Z,5.70
2019-04-11T22:20:45.870Z,5.71
2019-04-11T22:23:16.223Z,5.70
2019-04-11T22:25:46.575Z,5.63
2019-04-11T22:28:16.963Z,5.50
2019-04-11T22:30:48.091Z,5.33
2019-04-11T22:33:32.278Z,5.16
2019-04-11T22:36:02.784Z,5.00
2019-04-11T22:38:33.329Z,4.87
2019-04-11T22:41:03.564Z,4.78
2019-04-11T22:43:37.878Z,4.78
2019-04-11T22:46:07.936Z,4.74
2019-04-11T22:48:39.818Z,4.61
2019-04-11T22:51:11.326Z,4.50
2019-04-11T22:53:43.205Z,4.52
2019-04-11T22:56:16.139Z,4.54
2019-04-11T22:58:47.673Z,4.55
2019-04-11T23:01:17.835Z,4.58
2019-04-11T23:03:59.728Z,4.63
2019-04-11T23:06:30.002Z,4.60
2019-04-11T23:09:00.251Z,4.50
2019-04-11T23:11:30.651Z,4.39
2019-04-11T23:14:00.962Z,4.32
2019-04-11T23:16:32.177Z,4.29
2019-04-11T23:19:02.538Z,4.17
2019-04-11T23:21:32.747Z,4.14
2019-04-11T23:24:11.454Z,4.04
2019-04-11T23:26:35.294Z,3.98
2019-04-11T23:29:05.572Z,3.98
2019-04-11T23:31:36.154Z,3.93
2019-04-11T23:34:06.436Z,3.96
2019-04-11T23:36:36.628Z,4.03
2019-04-11T23:39:08.041Z,4.06
2019-04-11T23:41:38.306Z,4.11
2019-04-11T23:44:08.911Z,4.11
2019-04-11T23:46:39.205Z,4.02
2019-04-11T23:49:09.876Z,3.99
2019-04-11T23:51:40.038Z,3.83
2019-04-11T23:54:10.607Z,3.82
2019-04-11T23:56:41.025Z,3.82
2019-04-11T23:59:11.598Z,3.77
